Terminal Aerodrome Forecast
Issued by NWS

Home | Current Version | Previous Version | Text Only | Print | Product List | Glossary On
Versions: 1 2 3 4 5 6 7 8 9 10 11 12
000
FTUS41 KRNK 231145
TAFBCB
TAF
KBCB 231145Z 2312/2412 11008KT P6SM SCT022 OVC045
     FM231400 10010G22KT P6SM OVC022
     FM232200 10015G24KT 5SM -RA BR OVC015
     FM240100 12022G28KT 4SM RA BR OVC007=

USA.gov is the U.S. government's official web portal to all federal, state and local government web resources and services.